Rumoi, Japan

9:42 AM JST on February 10, 2016 (GMT +0900)
Sapporo | | Change Station
CLOSE
Current Station
Airport
Location: Sapporo AB,
Elevation: 33 ft
Nearby Weather Stations

Elev 33 ft 43.12 °N, 141.38 °E | Updated 23 minutes ago

Light Snow Showers
Light Showers Snow
30 °F
Feels Like 17 °F
N
22
Wind Variable Wind from NW

Today
High -- | Low -- °F
--% Chance of Precip.
Yesterday
High -- | Low -- °F
Precip. -- in
Pressure 29.89 in
Visibility 2.5 miles
Clouds Few 500 ft
Mostly Cloudy 1500 ft
Mostly Cloudy 3000 ft
Windchill 17 °F
Dew Point 25 °F
Humidity 80%
Rainfall 0.00 in
Snow Depth Not available.
6:41 AM 4:54 PM
Waxing Crescent, 3% visible
SPECI RJCO 100019Z 31019KT 4000 R32/P1800 -SHSN FEW005 BKN015 BKN030 M01/M04 Q1012 RMK 2ST005 5CU015 7CU030 A2989
Pressure 29.89 in
Visibility 2.5 miles
Clouds Few 500 ft
Mostly Cloudy 1500 ft
Mostly Cloudy 3000 ft
Windchill 17 °F
Dew Point 25 °F
Humidity 80%
Rainfall 0.00 in
Snow Depth Not available.
6:41 AM 4:54 PM
Waxing Crescent, 3% visible
SPECI RJCO 100019Z 31019KT 4000 R32/P1800 -SHSN FEW005 BKN015 BKN030 M01/M04 Q1012 RMK 2ST005 5CU015 7CU030 A2989

10-Day Weather Forecast

No radar image for this location.
×

Almanac

Astronomy

Feb. 10, 2016 Rise Set
Actual Time
Civil Twilight
Nautical Twilight
Astronomical Twilight
Moon
Length of Visible Light
Length of Day
Tomorrow will be .
, % of the Moon is Illuminated

Today's Extremes

Country Highs Country Lows

Community

WunderPhotos

Upload Photos

1,891,752 photos uploaded!

WunderBlog® & News

Nearby

Air Quality

  Air Quality AQ Index Pollutant
Not available.

Snow Depth

Station Depth Elevation

Earthquake Activity

City Distance Mag. Time & Date
Minimum magnitude displayed is 2.5.

Coastal Water Temperatures

Place Temperature

Stations

Nearby Weather Stations

Station Location Temp. Windchill Dew Point Humidity Wind Precip. Elev Updated Type